Relevés horaires Piotta (Suisse)


Relevés horaires à Piotta - Samedi 02 Juin 2007
Heure UTC1 Température [°C] Vent [km/h] Hum. [%] Pres.4 [hPa] Visi. [Km] Nébu. [octa] Préc.5 [mm] Cond.
2m. Res. Ros. Dir.2 Vit. Moy. Raf.3
23:00 8.6 8 7.8 SE 5.6 11.1 18.5 95 850(0.2/3h) -- -- -- --
22:00 10.4 9.6 8.8 O 7.4 13.0 22.2 90 850(1.0/3h) -- -- -- --
21:00 10.9 10.6 9.0 E 5.6 27.8 40.7 88 850(1.5/3h) 15 8/8 -- --
20:00 13.1 12 5.7 O 13.0 20.4 31.5 61 850(1.1/3h) -- -- -- --
19:00 14.0 12.5 5.4 ONO 18.5 22.2 33.3 56 850(0.7/3h) -- -- -- --
18:00 14.5 13.3 5.8 ONO 16.7 29.6 46.3 56 850(0.6/3h) 25 6/8 0/0h
--
17:00 15.3 13.9 5.7 ONO 22.2 27.8 40.7 53 850(0.4/3h) -- -- -- --
16:00 14.9 13.3 5.8 ONO 24.1 27.8 44.4 54 850(0.3/3h) -- -- -- --
15:00 15.1 13.8 5.5 O 20.4 29.6 46.3 53 850(0.1/3h) 25 6/8 -- --
14:00 15.1 13.2 5.5 ONO 29.6 29.6 46.3 53 850(0.3/3h) -- -- -- --
13:00 14.9 13.2 5.4 O 25.9 29.6 42.6 53 850 -- -- -- --
12:00 14.7 12.7 5.4 ONO 29.6 29.6 44.4 54 850(0.5/3h) 25 6/8 -- --
11:00 15.1 13.4 5.0 O 25.9 -- -- 51 850(0.5/3h) -- -- -- --
10:00 16.5 15.3 6.3 ONO 24.1 24.1 -- 51 850 -- -- -- --
09:00 13.8 12 5.1 O 22.2 27.8 38.9 56 850(0.5/3h) 20 5/8 -- --
08:00 14.6 12.7 4.8 O 27.8 27.8 38.9 52 850(0.5/3h) -- -- -- --
07:00 13.7 11.9 4.5 ONO 22.2 25.9 38.9 54 850(0.7/3h) -- -- -- --
06:00 11.4 9.1 4.5 ONO 20.4 27.8 37.0 62 850(0.8/3h) -- -- 0.7/12h
--
05:00 9.6 7 4.2 O 18.5 27.8 37.0 69 850(0.4/3h) -- -- -- --
04:00 9.2 6 3.8 O 24.1 27.8 37.0 69 850(0.1/3h) -- -- -- --
03:00 8.9 5.5 4.0 O 25.9 25.9 37.0 71 850(0.0/3h) -- -- -- --
02:00 8.3 4.8 4.3 ONO 24.1 25.9 35.2 76 850(0.0/3h) -- -- -- --
01:00 8.0 4.6 4.5 ONO 22.2 25.9 37.0 79 850(0.2/3h) -- -- -- --
00:00 9.0 5.6 2.9 ONO 25.9 25.9 37.0 66 850(-0.2/3h) 10 8/8 0.7/6h
Légère pluie continue

1 Coordinated Universal Time. Actuellement il est 09:00 locale et 07:00 UTC.

2 Le vent souffle depuis la direction indiquée vers la direction oposée.

3 Les rafales max. sont disponible 40 min après l'heure du relevé.

4 Pour les stations d'altitude (plus de 600m) le géopotentiel du niveau le plus proche de la pression obligatoire est indiqué.

5 Les stations disposant d'un diffuseur peuvent indiquer "trace". Cela signifie que des précipitations ont touchés le sol mais que la quantité est inférieure à 0.1 mm.

Copyright

Les données affichées sur cette page sont la propriété exclusive de Météo Suisse.

Récapitulatif de la journée
Température [°C] Vent [km/h] Ensoleillement4 [h] Precipitations totale5 [mm] Pression [Hpa]
Min1 Max.2 Moy.3 Max. Min Max.
6.9 16.5 25.7 46.3 4 h 18 min 0 850.0 850.0

1 Température minimale relevée entre 18:00 UTC la veille et 18:00 UTC le jour donné.

2 Température maximale relevée entre 06:00 UTC le jour donné et 06:00 UTC le lendemain.

3 Vent moyen de la journée basé sur les relevés horaires.

4 Ensoleillement en heures relevé entre 06:00 UTC la veille et 06:00 UTC le jour donné.

5 Précipitations totales tombées entre 06:00 UTC la jour donné et 06:00 UTC le lendemain.

Graphiques horaires